Time;durP1;ratioP1;P1;durP2;ratioP2;P2;SDS_P1;SDS_P2;PMS_P1;PMS_P2;Temp;Humidity;BMP_temperature;BMP_pressure;BME280_temperature;BME280_humidity;BME280_pressure;Samples;Min_cycle;Max_cycle;Signal;HPM_P1;HPM_P2
2023/03/16 00:00:45;;;;;;;10.00;3.40;;;;;;;;;;5155143;27;20106;-82
2023/03/16 00:03:18;;;;;;;7.38;3.72;;;;;;;;;;5156203;27;20450;-82
2023/03/16 00:05:53;;;;;;;8.18;3.38;;;;;;;;;;5153873;27;20117;-82
2023/03/16 00:08:19;;;;;;;6.63;3.35;;;;;;;;;;5144882;27;20042;-82
2023/03/16 00:10:46;;;;;;;8.10;3.40;;;;;;;;;;5141102;27;20043;-82
2023/03/16 00:13:13;;;;;;;7.80;3.55;;;;;;;;;;5155790;27;20045;-82
2023/03/16 00:15:40;;;;;;;7.00;3.03;;;;;;;;;;5155995;27;20456;-82
2023/03/16 00:18:06;;;;;;;10.52;3.15;;;;;;;;;;5156278;27;20612;-82
2023/03/16 00:20:32;;;;;;;9.00;3.60;;;;;;;;;;5155868;27;20118;-82
2023/03/16 00:22:59;;;;;;;7.45;3.60;;;;;;;;;;5155637;27;20046;-81
2023/03/16 00:25:25;;;;;;;9.45;3.45;;;;;;;;;;5158599;27;20042;-81
2023/03/16 00:27:51;;;;;;;7.93;3.35;;;;;;;;;;5134694;27;20550;-82
2023/03/16 00:30:17;;;;;;;6.45;3.47;;;;;;;;;;5120313;27;20061;-82
2023/03/16 00:32:43;;;;;;;8.50;3.63;;;;;;;;;;5132868;27;20042;-82
2023/03/16 00:35:10;;;;;;;6.70;3.45;;;;;;;;;;5159835;27;20046;-82
2023/03/16 00:37:38;;;;;;;6.00;3.30;;;;;;;;;;5159934;27;20042;-81
2023/03/16 00:40:06;;;;;;;9.70;3.65;;;;;;;;;;5145733;27;20045;-81
2023/03/16 00:42:33;;;;;;;6.72;3.50;;;;;;;;;;5136223;27;20042;-80
2023/03/16 00:45:00;;;;;;;5.90;3.42;;;;;;;;;;5151351;27;20038;-82
2023/03/16 00:47:28;;;;;;;6.95;3.47;;;;;;;;;;5159704;27;20046;-81
2023/03/16 00:49:55;;;;;;;5.43;3.42;;;;;;;;;;5159475;27;20504;-82
2023/03/16 00:52:22;;;;;;;7.20;3.28;;;;;;;;;;5176889;27;20026;-80
2023/03/16 00:54:51;;;;;;;8.95;4.13;;;;;;;;;;5138775;27;20482;-80
2023/03/16 00:57:18;;;;;;;9.10;3.78;;;;;;;;;;5153452;27;20038;-82
2023/03/16 00:59:45;;;;;;;7.20;3.75;;;;;;;;;;5141947;27;20030;-82
2023/03/16 01:02:11;;;;;;;8.35;3.88;;;;;;;;;;5141345;27;20038;-82
2023/03/16 01:04:38;;;;;;;7.90;3.92;;;;;;;;;;5153621;27;20126;-82
2023/03/16 01:07:06;;;;;;;8.65;3.40;;;;;;;;;;5155334;27;20282;-82
2023/03/16 01:09:35;;;;;;;10.32;4.10;;;;;;;;;;5155922;27;20360;-82
2023/03/16 01:12:02;;;;;;;7.30;3.80;;;;;;;;;;5138307;27;20128;-82
2023/03/16 01:14:28;;;;;;;8.55;3.38;;;;;;;;;;5155495;27;20053;-82
2023/03/16 01:16:54;;;;;;;7.70;3.75;;;;;;;;;;5138178;27;20042;-82
2023/03/16 01:19:21;;;;;;;7.43;3.80;;;;;;;;;;5155799;27;20042;-82
2023/03/16 01:21:47;;;;;;;6.72;3.78;;;;;;;;;;5155107;27;20047;-82
2023/03/16 01:24:13;;;;;;;9.95;4.13;;;;;;;;;;5155419;27;20089;-82
2023/03/16 01:26:40;;;;;;;7.50;3.90;;;;;;;;;;5153468;27;20046;-82
2023/03/16 01:29:06;;;;;;;7.00;3.45;;;;;;;;;;5135578;27;20558;-82
2023/03/16 01:31:32;;;;;;;8.65;3.88;;;;;;;;;;5134875;27;20384;-82
2023/03/16 01:33:58;;;;;;;7.47;3.70;;;;;;;;;;5134527;27;20039;-80
2023/03/16 01:36:24;;;;;;;7.72;4.07;;;;;;;;;;5134154;27;20087;-80
2023/03/16 01:38:50;;;;;;;5.93;3.83;;;;;;;;;;5117362;27;20502;-80
2023/03/16 01:41:16;;;;;;;9.70;3.88;;;;;;;;;;5140889;27;20057;-80
2023/03/16 01:43:43;;;;;;;9.90;3.85;;;;;;;;;;5137833;27;20039;-80
2023/03/16 01:46:09;;;;;;;6.88;4.00;;;;;;;;;;5137695;27;20482;-80
2023/03/16 01:48:41;;;;;;;10.63;4.90;;;;;;;;;;5155465;27;20436;-80
2023/03/16 01:51:14;;;;;;;6.13;3.95;;;;;;;;;;5137519;27;20121;-80
2023/03/16 01:53:41;;;;;;;8.13;4.03;;;;;;;;;;5144535;27;20039;-80
2023/03/16 01:56:09;;;;;;;7.55;4.32;;;;;;;;;;5150708;27;20082;-80
2023/03/16 01:58:36;;;;;;;10.02;4.05;;;;;;;;;;5146376;27;20552;-80
2023/03/16 02:01:03;;;;;;;9.27;4.30;;;;;;;;;;5145184;27;20041;-80
2023/03/16 02:03:33;;;;;;;8.63;4.13;;;;;;;;;;5137497;27;20043;-82
2023/03/16 02:06:06;;;;;;;7.47;4.32;;;;;;;;;;5154147;27;20062;-80
2023/03/16 02:08:32;;;;;;;8.13;3.92;;;;;;;;;;5154826;27;20046;-82
2023/03/16 02:10:59;;;;;;;10.63;4.18;;;;;;;;;;5154187;27;20039;-81
2023/03/16 02:13:28;;;;;;;8.27;3.85;;;;;;;;;;5154503;27;20035;-82
2023/03/16 02:15:54;;;;;;;7.07;4.20;;;;;;;;;;5154194;27;20368;-82
2023/03/16 02:18:23;;;;;;;8.82;4.18;;;;;;;;;;5154506;27;20065;-82
2023/03/16 02:21:01;;;;;;;8.75;3.95;;;;;;;;;;5154264;27;20114;-81
2023/03/16 02:23:28;;;;;;;8.88;4.18;;;;;;;;;;5137198;27;20133;-82
2023/03/16 02:25:57;;;;;;;8.15;4.13;;;;;;;;;;5154268;27;20046;-80
2023/03/16 02:28:26;;;;;;;8.10;4.05;;;;;;;;;;5120273;27;20481;-80
2023/03/16 02:30:52;;;;;;;6.38;4.28;;;;;;;;;;5153459;27;20135;-80
2023/03/16 02:33:20;;;;;;;10.32;4.57;;;;;;;;;;5155317;27;20486;-80
2023/03/16 02:35:46;;;;;;;8.45;4.00;;;;;;;;;;5154176;27;20051;-80
2023/03/16 02:38:12;;;;;;;11.57;4.38;;;;;;;;;;5154459;27;20045;-82
2023/03/16 02:40:38;;;;;;;7.85;4.20;;;;;;;;;;5136815;27;20043;-80
2023/03/16 02:43:07;;;;;;;7.75;4.55;;;;;;;;;;5153586;27;20053;-80
2023/03/16 02:45:41;;;;;;;8.02;4.18;;;;;;;;;;5151630;27;20479;-80
2023/03/16 02:48:13;;;;;;;8.73;4.05;;;;;;;;;;5142049;27;20041;-80
2023/03/16 02:50:45;;;;;;;9.85;4.65;;;;;;;;;;5153922;27;20111;-82
2023/03/16 02:53:12;;;;;;;8.85;4.80;;;;;;;;;;5148353;27;20043;-81
2023/03/16 02:55:38;;;;;;;8.23;4.38;;;;;;;;;;5130416;27;20081;-81
2023/03/16 02:58:04;;;;;;;6.95;4.15;;;;;;;;;;5142131;27;20039;-82
2023/03/16 03:00:31;;;;;;;7.82;4.20;;;;;;;;;;5150278;27;20387;-81
2023/03/16 03:02:57;;;;;;;10.63;5.13;;;;;;;;;;5138714;27;20054;-80
2023/03/16 03:05:23;;;;;;;7.72;4.28;;;;;;;;;;5143128;27;20059;-80
2023/03/16 03:07:50;;;;;;;8.10;4.25;;;;;;;;;;5095066;28;20047;-80
2023/03/16 03:10:16;;;;;;;7.13;4.25;;;;;;;;;;5129775;27;20035;-80
2023/03/16 03:12:42;;;;;;;7.82;4.15;;;;;;;;;;5115659;27;20046;-81
2023/03/16 03:15:09;;;;;;;6.47;4.22;;;;;;;;;;5132075;27;20051;-80
2023/03/16 03:17:36;;;;;;;9.43;4.55;;;;;;;;;;5132728;27;20043;-81
2023/03/16 03:20:12;;;;;;;9.00;4.55;;;;;;;;;;5115443;27;20086;-80
2023/03/16 03:22:38;;;;;;;9.70;4.35;;;;;;;;;;5132437;27;20118;-79
2023/03/16 03:25:05;;;;;;;10.65;4.40;;;;;;;;;;5132130;27;20042;-80
2023/03/16 03:27:32;;;;;;;9.77;4.93;;;;;;;;;;5115127;27;20039;-80
2023/03/16 03:29:58;;;;;;;8.35;4.50;;;;;;;;;;5132460;27;20038;-80
2023/03/16 03:32:24;;;;;;;9.20;4.82;;;;;;;;;;5131912;27;20039;-80
2023/03/16 03:34:51;;;;;;;10.07;5.10;;;;;;;;;;5115647;27;20499;-80
2023/03/16 03:37:18;;;;;;;10.18;5.10;;;;;;;;;;5132117;27;20088;-81
2023/03/16 03:39:44;;;;;;;12.55;5.38;;;;;;;;;;5132346;27;20035;-80
2023/03/16 03:42:10;;;;;;;9.05;4.40;;;;;;;;;;5114887;27;20121;-80
2023/03/16 03:44:37;;;;;;;9.88;5.50;;;;;;;;;;5115131;27;20047;-80
2023/03/16 03:47:04;;;;;;;10.40;5.28;;;;;;;;;;5152959;27;20079;-80
2023/03/16 03:49:30;;;;;;;10.10;5.60;;;;;;;;;;5135942;27;20383;-80
2023/03/16 03:51:58;;;;;;;10.60;5.03;;;;;;;;;;5152883;27;20487;-80
2023/03/16 03:54:24;;;;;;;9.40;5.35;;;;;;;;;;5126498;27;20047;-82
2023/03/16 03:56:53;;;;;;;8.90;5.20;;;;;;;;;;5142576;27;20145;-82
2023/03/16 03:59:21;;;;;;;10.15;5.10;;;;;;;;;;5116960;27;20051;-82
2023/03/16 04:01:47;;;;;;;9.88;5.28;;;;;;;;;;5125951;27;20043;-80
2023/03/16 04:04:14;;;;;;;10.32;5.07;;;;;;;;;;5134447;27;20051;-81
2023/03/16 04:06:40;;;;;;;9.00;4.90;;;;;;;;;;5108900;28;20047;-82
2023/03/16 04:09:07;;;;;;;9.95;5.53;;;;;;;;;;5130484;27;20487;-82
2023/03/16 04:11:33;;;;;;;9.55;5.68;;;;;;;;;;5135387;27;20075;-81
2023/03/16 04:13:59;;;;;;;9.23;5.20;;;;;;;;;;5135218;27;20101;-82
2023/03/16 04:16:25;;;;;;;11.30;6.00;;;;;;;;;;5120181;27;20043;-82
2023/03/16 04:18:55;;;;;;;10.85;5.50;;;;;;;;;;5135635;27;20494;-82
2023/03/16 04:21:21;;;;;;;10.00;5.65;;;;;;;;;;5134711;27;20084;-82
2023/03/16 04:23:48;;;;;;;8.50;4.85;;;;;;;;;;5153648;27;20074;-81
2023/03/16 04:26:14;;;;;;;14.15;6.07;;;;;;;;;;5162805;27;20149;-82
2023/03/16 04:28:42;;;;;;;11.13;5.88;;;;;;;;;;5139055;27;20447;-82
2023/03/16 04:31:09;;;;;;;13.00;6.15;;;;;;;;;;5142339;27;20046;-82
2023/03/16 04:33:36;;;;;;;14.20;5.82;;;;;;;;;;5118019;27;20470;-82
2023/03/16 04:36:02;;;;;;;11.73;6.18;;;;;;;;;;5135411;27;20390;-82
2023/03/16 04:38:28;;;;;;;11.00;6.35;;;;;;;;;;5135119;27;20490;-82
2023/03/16 04:40:55;;;;;;;11.88;5.70;;;;;;;;;;5135074;27;20042;-82
2023/03/16 04:43:21;;;;;;;12.30;5.95;;;;;;;;;;5134496;27;20038;-82
2023/03/16 04:45:48;;;;;;;10.25;6.13;;;;;;;;;;5135357;27;20487;-82
2023/03/16 04:48:14;;;;;;;10.90;6.07;;;;;;;;;;5117325;27;20039;-81
2023/03/16 04:50:40;;;;;;;9.98;5.85;;;;;;;;;;5135095;27;20058;-82
2023/03/16 04:53:06;;;;;;;11.73;6.03;;;;;;;;;;5134946;27;20070;-81
2023/03/16 04:55:32;;;;;;;10.70;6.55;;;;;;;;;;5134595;27;20108;-80
2023/03/16 04:57:58;;;;;;;11.80;6.20;;;;;;;;;;5117856;27;20043;-80
2023/03/16 05:00:24;;;;;;;11.50;6.32;;;;;;;;;;5134610;27;20042;-80
2023/03/16 05:02:51;;;;;;;10.52;6.25;;;;;;;;;;5123094;27;20027;-80
2023/03/16 05:05:17;;;;;;;11.52;6.20;;;;;;;;;;5133549;27;20087;-79
2023/03/16 05:07:44;;;;;;;11.73;6.35;;;;;;;;;;5117736;27;20042;-80
2023/03/16 05:10:11;;;;;;;13.60;6.68;;;;;;;;;;5136146;27;20551;-80
2023/03/16 05:12:38;;;;;;;13.77;6.70;;;;;;;;;;5141698;27;20034;-80
2023/03/16 05:15:10;;;;;;;10.63;6.05;;;;;;;;;;5159274;27;20038;-81
2023/03/16 05:17:36;;;;;;;10.43;6.30;;;;;;;;;;5138456;27;20186;-80
2023/03/16 05:20:06;;;;;;;12.05;6.75;;;;;;;;;;5148127;27;20139;-80
2023/03/16 05:22:34;;;;;;;11.50;6.20;;;;;;;;;;5126727;27;20113;-80
2023/03/16 05:25:03;;;;;;;12.07;6.07;;;;;;;;;;5159180;27;20045;-80
2023/03/16 05:27:29;;;;;;;10.10;5.97;;;;;;;;;;5158531;27;20042;-80
2023/03/16 05:29:55;;;;;;;10.65;5.78;;;;;;;;;;5152176;27;20108;-82
2023/03/16 05:32:21;;;;;;;11.65;6.07;;;;;;;;;;5174418;27;20570;-82
2023/03/16 05:34:47;;;;;;;11.23;5.75;;;;;;;;;;5141754;27;20046;-81
2023/03/16 05:37:14;;;;;;;13.85;7.10;;;;;;;;;;5159174;27;20420;-82
2023/03/16 05:39:40;;;;;;;9.88;6.03;;;;;;;;;;5141296;27;20108;-80
2023/03/16 05:42:06;;;;;;;14.27;6.85;;;;;;;;;;5158792;27;20048;-80
2023/03/16 05:44:32;;;;;;;10.30;6.30;;;;;;;;;;5143691;27;20394;-81
2023/03/16 05:46:58;;;;;;;11.18;6.38;;;;;;;;;;5151536;27;20031;-80
2023/03/16 05:49:25;;;;;;;10.43;6.55;;;;;;;;;;5137551;27;20038;-80
2023/03/16 05:51:51;;;;;;;9.80;6.35;;;;;;;;;;5157298;27;20069;-81
2023/03/16 05:54:17;;;;;;;12.13;6.45;;;;;;;;;;5141605;27;20046;-82
2023/03/16 05:56:43;;;;;;;11.50;7.05;;;;;;;;;;5158121;27;20034;-82
2023/03/16 05:59:09;;;;;;;12.23;6.88;;;;;;;;;;5141288;27;20030;-82
2023/03/16 06:01:36;;;;;;;11.05;7.03;;;;;;;;;;5129002;27;20043;-80
2023/03/16 06:04:04;;;;;;;10.45;6.72;;;;;;;;;;5141045;27;20038;-81
2023/03/16 06:06:30;;;;;;;11.82;6.32;;;;;;;;;;5139734;27;20055;-81
2023/03/16 06:08:56;;;;;;;14.23;6.97;;;;;;;;;;5137379;27;20039;-80
2023/03/16 06:11:23;;;;;;;10.90;6.53;;;;;;;;;;5157962;27;20117;-81
2023/03/16 06:13:49;;;;;;;10.05;6.15;;;;;;;;;;5158031;27;20129;-81
2023/03/16 06:16:15;;;;;;;13.35;7.30;;;;;;;;;;5158241;27;20506;-82
2023/03/16 06:18:41;;;;;;;10.95;6.70;;;;;;;;;;5158156;27;20077;-81
2023/03/16 06:21:07;;;;;;;11.93;6.80;;;;;;;;;;5158035;27;20065;-80
2023/03/16 06:23:34;;;;;;;12.52;6.45;;;;;;;;;;5140395;27;20049;-82
2023/03/16 06:26:00;;;;;;;13.77;5.75;;;;;;;;;;5157787;27;20039;-82
2023/03/16 06:28:26;;;;;;;10.35;6.15;;;;;;;;;;5157420;27;20050;-82
2023/03/16 06:30:56;;;;;;;10.57;6.28;;;;;;;;;;5158165;27;20367;-80
2023/03/16 06:33:23;;;;;;;9.57;5.82;;;;;;;;;;5157708;27;20042;-80
2023/03/16 06:35:50;;;;;;;12.00;5.78;;;;;;;;;;5140337;27;20069;-81
2023/03/16 06:38:16;;;;;;;11.25;6.30;;;;;;;;;;5150224;27;20090;-82
2023/03/16 06:40:42;;;;;;;11.80;6.47;;;;;;;;;;5151090;27;20489;-81
2023/03/16 06:43:08;;;;;;;10.93;6.47;;;;;;;;;;5151470;27;20038;-80
2023/03/16 06:45:34;;;;;;;9.20;5.55;;;;;;;;;;5131599;27;20163;-81
2023/03/16 06:48:00;;;;;;;12.40;6.20;;;;;;;;;;5157541;27;20034;-81
2023/03/16 06:50:27;;;;;;;11.82;5.97;;;;;;;;;;5157048;27;20050;-81
2023/03/16 06:52:53;;;;;;;11.75;5.93;;;;;;;;;;5140173;27;20144;-81
2023/03/16 06:55:19;;;;;;;11.55;6.20;;;;;;;;;;5139576;27;20045;-80
2023/03/16 06:57:45;;;;;;;10.85;6.22;;;;;;;;;;5132041;27;20538;-82
2023/03/16 07:00:14;;;;;;;13.73;6.38;;;;;;;;;;5156148;27;20038;-82
2023/03/16 07:02:42;;;;;;;12.35;6.10;;;;;;;;;;5147205;27;20046;-81
2023/03/16 07:05:11;;;;;;;11.93;5.65;;;;;;;;;;5153444;27;20129;-80
2023/03/16 07:07:38;;;;;;;11.80;6.20;;;;;;;;;;5122103;27;20070;-80
2023/03/16 07:10:04;;;;;;;9.55;5.82;;;;;;;;;;5136446;27;20042;-80
2023/03/16 07:12:30;;;;;;;9.68;5.57;;;;;;;;;;5136016;27;20137;-81
2023/03/16 07:14:56;;;;;;;9.18;5.93;;;;;;;;;;5136070;27;20046;-82
2023/03/16 07:17:22;;;;;;;11.43;5.90;;;;;;;;;;5154925;27;20073;-81
2023/03/16 07:19:48;;;;;;;9.95;6.07;;;;;;;;;;5156927;27;20046;-80
2023/03/16 07:22:14;;;;;;;9.50;5.55;;;;;;;;;;5120193;27;20066;-80
2023/03/16 07:24:41;;;;;;;8.75;5.28;;;;;;;;;;5147040;27;20034;-81
2023/03/16 07:27:07;;;;;;;10.68;6.00;;;;;;;;;;5156545;27;20026;-80
2023/03/16 07:29:33;;;;;;;11.85;5.30;;;;;;;;;;5156352;27;20038;-82
2023/03/16 07:31:59;;;;;;;11.05;5.32;;;;;;;;;;5157424;27;20494;-81
2023/03/16 07:34:25;;;;;;;9.00;5.45;;;;;;;;;;5156228;27;20100;-80
2023/03/16 07:36:51;;;;;;;9.45;5.00;;;;;;;;;;5139320;27;20332;-82
2023/03/16 07:39:17;;;;;;;11.75;6.15;;;;;;;;;;5157215;27;20539;-82
2023/03/16 07:41:44;;;;;;;10.25;5.57;;;;;;;;;;5156053;27;20094;-82
2023/03/16 07:44:10;;;;;;;10.60;5.10;;;;;;;;;;5139002;27;20046;-82
2023/03/16 07:46:36;;;;;;;9.40;5.43;;;;;;;;;;5138785;27;20126;-81
2023/03/16 07:49:02;;;;;;;9.25;5.20;;;;;;;;;;5145027;27;20041;-80
2023/03/16 07:51:28;;;;;;;10.70;5.70;;;;;;;;;;5156404;27;20034;-82
2023/03/16 07:53:54;;;;;;;8.75;4.88;;;;;;;;;;5138642;27;20117;-81
2023/03/16 07:56:20;;;;;;;11.95;5.60;;;;;;;;;;5156342;27;20042;-80
2023/03/16 07:58:46;;;;;;;10.02;5.25;;;;;;;;;;5156255;27;20042;-82
2023/03/16 08:01:13;;;;;;;11.10;5.82;;;;;;;;;;5116871;27;20046;-81
2023/03/16 08:03:39;;;;;;;12.43;5.45;;;;;;;;;;5155756;27;20050;-80
2023/03/16 08:06:05;;;;;;;12.52;5.43;;;;;;;;;;5139978;27;20515;-80
2023/03/16 08:08:32;;;;;;;11.73;5.28;;;;;;;;;;5111031;27;20505;-81
2023/03/16 08:10:58;;;;;;;8.00;4.32;;;;;;;;;;5134978;27;20031;-80
2023/03/16 08:13:26;;;;;;;11.05;5.18;;;;;;;;;;5135901;27;20099;-81
2023/03/16 08:15:57;;;;;;;8.50;4.78;;;;;;;;;;5135076;27;20430;-80
2023/03/16 08:18:24;;;;;;;9.90;5.47;;;;;;;;;;5119232;27;20043;-81
2023/03/16 08:20:50;;;;;;;10.75;5.00;;;;;;;;;;5117949;27;20498;-80
2023/03/16 08:23:16;;;;;;;10.75;5.00;;;;;;;;;;5153683;27;20414;-79
2023/03/16 08:25:42;;;;;;;10.40;5.10;;;;;;;;;;5138315;27;20066;-80
2023/03/16 08:28:09;;;;;;;12.85;4.93;;;;;;;;;;5138501;27;20041;-81
2023/03/16 08:30:36;;;;;;;9.43;5.05;;;;;;;;;;5138634;27;20042;-81
2023/03/16 08:33:03;;;;;;;9.32;4.70;;;;;;;;;;5155681;27;20061;-80
2023/03/16 08:35:29;;;;;;;8.73;4.70;;;;;;;;;;5155846;27;20050;-81
2023/03/16 08:37:55;;;;;;;10.93;5.30;;;;;;;;;;5140977;27;20066;-80
2023/03/16 08:40:21;;;;;;;9.23;4.90;;;;;;;;;;5155884;27;20102;-82
2023/03/16 08:42:49;;;;;;;9.98;5.10;;;;;;;;;;5155540;27;20121;-80
2023/03/16 08:45:16;;;;;;;10.57;4.70;;;;;;;;;;5156596;27;20525;-80
2023/03/16 08:47:43;;;;;;;9.15;4.85;;;;;;;;;;5142489;27;20046;-81
2023/03/16 08:50:11;;;;;;;8.57;4.47;;;;;;;;;;5159769;27;20405;-80
2023/03/16 08:52:37;;;;;;;9.32;5.20;;;;;;;;;;5159812;27;20087;-82
2023/03/16 08:55:04;;;;;;;7.97;5.10;;;;;;;;;;5159612;27;20386;-81
2023/03/16 08:57:32;;;;;;;8.45;5.00;;;;;;;;;;5142514;27;20038;-80
2023/03/16 08:59:58;;;;;;;11.15;5.50;;;;;;;;;;5159181;27;20034;-81
2023/03/16 09:02:25;;;;;;;9.75;4.95;;;;;;;;;;5149979;27;20056;-82
2023/03/16 09:04:51;;;;;;;8.23;5.07;;;;;;;;;;5156559;27;20049;-81
2023/03/16 09:07:18;;;;;;;10.30;5.30;;;;;;;;;;5138648;27;20047;-82
2023/03/16 09:09:45;;;;;;;8.23;4.97;;;;;;;;;;5121318;27;20204;-81
2023/03/16 09:12:12;;;;;;;8.75;4.93;;;;;;;;;;5131437;27;20039;-81
2023/03/16 09:14:39;;;;;;;8.25;5.03;;;;;;;;;;5146029;27;20523;-81
2023/03/16 09:17:06;;;;;;;11.07;5.28;;;;;;;;;;5159120;27;20107;-81
2023/03/16 09:19:32;;;;;;;9.70;4.95;;;;;;;;;;5158642;27;20051;-81
2023/03/16 09:21:59;;;;;;;12.32;5.63;;;;;;;;;;5145870;27;20042;-81
2023/03/16 09:24:25;;;;;;;10.63;5.18;;;;;;;;;;5158922;27;20066;-80
2023/03/16 09:26:52;;;;;;;12.65;5.82;;;;;;;;;;5145521;27;20046;-81
2023/03/16 09:29:18;;;;;;;9.73;5.40;;;;;;;;;;5157696;27;20050;-80
2023/03/16 09:31:45;;;;;;;11.20;6.28;;;;;;;;;;5151642;27;20505;-81
2023/03/16 09:34:11;;;;;;;9.38;5.53;;;;;;;;;;5157689;27;20065;-80
2023/03/16 09:36:37;;;;;;;9.98;5.20;;;;;;;;;;5145740;27;20044;-81
2023/03/16 09:39:03;;;;;;;11.30;5.80;;;;;;;;;;5158524;27;20054;-81
2023/03/16 09:41:33;;;;;;;9.50;5.20;;;;;;;;;;5153189;27;20086;-81
2023/03/16 09:44:18;;;;;;;8.43;4.72;;;;;;;;;;5150369;27;20046;-81
2023/03/16 09:46:46;;;;;;;8.10;5.43;;;;;;;;;;5149437;27;20030;-82
2023/03/16 09:49:15;;;;;;;10.65;5.13;;;;;;;;;;5145203;27;20057;-82
2023/03/16 09:51:44;;;;;;;8.40;4.70;;;;;;;;;;5158248;27;20141;-80
2023/03/16 09:54:33;;;;;;;10.18;5.13;;;;;;;;;;5157980;27;20042;-80
2023/03/16 09:57:00;;;;;;;9.93;5.03;;;;;;;;;;5157786;27;20046;-81
2023/03/16 09:59:27;;;;;;;7.88;4.78;;;;;;;;;;5150250;27;20053;-81
2023/03/16 10:01:53;;;;;;;9.25;4.75;;;;;;;;;;5120453;27;20095;-82
2023/03/16 10:04:29;;;;;;;8.38;4.85;;;;;;;;;;5144490;27;20042;-82
2023/03/16 10:07:01;;;;;;;11.75;5.35;;;;;;;;;;5144509;27;20493;-81
2023/03/16 10:09:32;;;;;;;9.73;4.88;;;;;;;;;;5156259;27;20042;-81
2023/03/16 10:12:01;;;;;;;10.45;4.47;;;;;;;;;;5137259;27;20039;-81
2023/03/16 10:14:36;;;;;;;9.15;5.38;;;;;;;;;;5155898;27;20118;-81
2023/03/16 10:17:02;;;;;;;8.75;4.80;;;;;;;;;;5136858;27;20042;-81
2023/03/16 10:19:28;;;;;;;8.65;4.60;;;;;;;;;;5123047;27;20454;-81
2023/03/16 10:21:55;;;;;;;9.48;5.30;;;;;;;;;;5150896;27;20393;-81
2023/03/16 10:24:40;;;;;;;9.13;5.32;;;;;;;;;;5152653;27;20385;-81
2023/03/16 10:27:12;;;;;;;10.45;4.03;;;;;;;;;;5122498;27;20062;-79
2023/03/16 10:29:38;;;;;;;11.30;4.70;;;;;;;;;;5148758;27;20042;-80
2023/03/16 10:32:15;;;;;;;9.15;5.30;;;;;;;;;;5157382;27;20042;-81
2023/03/16 10:34:44;;;;;;;10.05;4.40;;;;;;;;;;5147119;27;20046;-81
2023/03/16 10:37:12;;;;;;;9.52;5.07;;;;;;;;;;5154536;27;20126;-80
2023/03/16 10:39:42;;;;;;;8.45;5.20;;;;;;;;;;5155198;27;20125;-80
2023/03/16 10:42:15;;;;;;;7.95;4.70;;;;;;;;;;5152030;27;20050;-81
2023/03/16 10:44:42;;;;;;;8.68;4.38;;;;;;;;;;5140312;27;20042;-80
2023/03/16 10:47:16;;;;;;;7.45;4.53;;;;;;;;;;5175694;27;20038;-79
2023/03/16 10:49:47;;;;;;;8.18;3.83;;;;;;;;;;5140340;27;20041;-79
2023/03/16 10:52:14;;;;;;;10.57;4.20;;;;;;;;;;5157512;27;20124;-80
2023/03/16 10:54:48;;;;;;;8.65;4.25;;;;;;;;;;5157438;27;20490;-78
2023/03/16 10:57:24;;;;;;;8.05;4.40;;;;;;;;;;5138669;27;20501;-82
2023/03/16 10:59:53;;;;;;;7.55;4.05;;;;;;;;;;5136949;27;20053;-81
2023/03/16 11:02:26;;;;;;;7.47;4.50;;;;;;;;;;5151818;27;20049;-80
2023/03/16 11:04:53;;;;;;;8.88;4.95;;;;;;;;;;5157067;27;20117;-81
2023/03/16 11:07:22;;;;;;;8.57;4.28;;;;;;;;;;5139457;27;20046;-81
2023/03/16 11:09:50;;;;;;;6.63;4.10;;;;;;;;;;5156278;27;20041;-80
2023/03/16 11:12:20;;;;;;;7.05;3.95;;;;;;;;;;5139288;27;20091;-80
2023/03/16 11:14:47;;;;;;;8.10;4.93;;;;;;;;;;5175925;27;20494;-80
2023/03/16 11:17:32;;;;;;;9.15;4.00;;;;;;;;;;5139227;27;20131;-81
2023/03/16 11:20:04;;;;;;;7.50;4.75;;;;;;;;;;5138459;27;20048;-81
2023/03/16 11:22:31;;;;;;;9.48;4.80;;;;;;;;;;5144794;27;20046;-81
2023/03/16 11:25:05;;;;;;;7.93;4.47;;;;;;;;;;5156596;27;20475;-80
2023/03/16 11:27:43;;;;;;;9.65;3.90;;;;;;;;;;5156580;27;20034;-81
2023/03/16 11:30:10;;;;;;;10.13;4.63;;;;;;;;;;5123986;27;20083;-81
2023/03/16 11:32:37;;;;;;;8.75;4.63;;;;;;;;;;5143422;27;20038;-79
2023/03/16 11:35:13;;;;;;;9.85;4.72;;;;;;;;;;5157001;27;20390;-81
2023/03/16 11:37:45;;;;;;;8.23;4.10;;;;;;;;;;5105500;27;20114;-82
2023/03/16 11:40:19;;;;;;;7.55;4.40;;;;;;;;;;5136035;27;20126;-84
2023/03/16 11:43:04;;;;;;;10.57;4.30;;;;;;;;;;5119616;27;20045;-82
2023/03/16 11:45:31;;;;;;;8.68;4.63;;;;;;;;;;5136077;27;20092;-81
2023/03/16 11:47:57;;;;;;;9.60;5.15;;;;;;;;;;5144549;27;20042;-85
2023/03/16 11:50:27;;;;;;;8.93;4.65;;;;;;;;;;5156724;27;20079;-81
2023/03/16 11:53:13;;;;;;;8.38;4.20;;;;;;;;;;5127823;27;20046;-81
2023/03/16 11:55:39;;;;;;;;;;;;;;;;;;5157137;27;20545;-81
2023/03/16 11:58:19;;;;;;;9.77;4.57;;;;;;;;;;5155846;27;20372;-79
2023/03/16 12:00:51;;;;;;;7.95;3.97;;;;;;;;;;5151299;27;20031;-80
2023/03/16 12:03:36;;;;;;;6.30;3.92;;;;;;;;;;5155946;27;20114;-79
2023/03/16 12:06:06;;;;;;;7.30;3.80;;;;;;;;;;5149469;27;20054;-80
2023/03/16 12:08:38;;;;;;;8.95;4.50;;;;;;;;;;5153929;27;20042;-80
2023/03/16 12:11:22;;;;;;;10.93;4.80;;;;;;;;;;5135187;27;20031;-79
2023/03/16 12:14:01;;;;;;;10.38;4.82;;;;;;;;;;5135456;27;20534;-79
2023/03/16 12:17:00;;;;;;;9.02;4.50;;;;;;;;;;5143782;27;20050;-80
2023/03/16 12:19:53;;;;;;;10.57;5.25;;;;;;;;;;5071488;27;20070;-79
2023/03/16 12:22:37;;;;;;;7.35;4.20;;;;;;;;;;5147102;27;20058;-79
2023/03/16 12:25:11;;;;;;;8.07;4.15;;;;;;;;;;5160114;27;20179;-79
2023/03/16 12:27:38;;;;;;;6.18;3.85;;;;;;;;;;5142901;27;20113;-81
2023/03/16 12:30:26;;;;;;;7.18;4.38;;;;;;;;;;5160673;27;20482;-82
2023/03/16 12:33:08;;;;;;;8.02;4.47;;;;;;;;;;5156143;27;20111;-82
2023/03/16 12:35:40;;;;;;;8.77;4.43;;;;;;;;;;5139639;27;20050;-81
2023/03/16 12:38:16;;;;;;;8.90;4.18;;;;;;;;;;5131563;27;20096;-82
2023/03/16 12:40:45;;;;;;;8.23;4.30;;;;;;;;;;5115799;27;20060;-81
2023/03/16 12:43:30;;;;;;;8.95;4.85;;;;;;;;;;5142347;27;20034;-83
2023/03/16 12:46:01;;;;;;;8.88;4.10;;;;;;;;;;5156845;27;20043;-82
2023/03/16 12:48:36;;;;;;;7.97;4.50;;;;;;;;;;5122260;27;20081;-81
2023/03/16 12:51:06;;;;;;;8.20;4.80;;;;;;;;;;5139357;27;20121;-80
2023/03/16 12:53:45;;;;;;;9.13;4.38;;;;;;;;;;5159756;27;20482;-80
2023/03/16 12:56:16;;;;;;;9.00;5.03;;;;;;;;;;5142486;27;20438;-79
2023/03/16 12:58:44;;;;;;;9.60;5.18;;;;;;;;;;5159622;27;20516;-79
2023/03/16 13:01:12;;;;;;;9.52;4.60;;;;;;;;;;5135125;27;20386;-81
2023/03/16 13:03:38;;;;;;;8.35;4.53;;;;;;;;;;5176464;27;20030;-79
2023/03/16 13:06:16;;;;;;;6.50;4.25;;;;;;;;;;5131464;27;20059;-80
2023/03/16 13:08:44;;;;;;;7.25;4.60;;;;;;;;;;5132637;27;20031;-80
2023/03/16 13:11:13;;;;;;;9.18;4.80;;;;;;;;;;5138873;27;20066;-79
2023/03/16 13:13:58;;;;;;;8.15;4.57;;;;;;;;;;5138487;27;20050;-79
2023/03/16 13:16:27;;;;;;;5.50;3.65;;;;;;;;;;5115803;27;20435;-79
2023/03/16 13:18:53;;;;;;;7.00;4.15;;;;;;;;;;5139886;27;20117;-83
2023/03/16 13:21:25;;;;;;;8.93;4.38;;;;;;;;;;5141591;27;20475;-82
2023/03/16 13:24:00;;;;;;;7.22;3.90;;;;;;;;;;5148876;27;20095;-82
2023/03/16 13:26:46;;;;;;;8.07;4.63;;;;;;;;;;5157459;27;20097;-81
2023/03/16 13:29:22;;;;;;;7.57;4.40;;;;;;;;;;5139510;27;20038;-81
2023/03/16 13:31:49;;;;;;;10.88;4.57;;;;;;;;;;5147402;27;20043;-82
2023/03/16 13:34:20;;;;;;;9.00;4.30;;;;;;;;;;5157488;27;20053;-83
2023/03/16 13:36:46;;;;;;;11.32;4.55;;;;;;;;;;5146964;27;20414;-79
2023/03/16 13:39:21;;;;;;;7.63;4.90;;;;;;;;;;5158935;27;20054;-79
2023/03/16 13:41:58;;;;;;;6.68;4.32;;;;;;;;;;5159178;27;20038;-80
2023/03/16 13:44:25;;;;;;;7.53;4.13;;;;;;;;;;5151095;27;20117;-83
2023/03/16 13:46:51;;;;;;;8.00;4.13;;;;;;;;;;5138516;27;20517;-84
2023/03/16 13:49:17;;;;;;;6.28;3.90;;;;;;;;;;5127052;27;20034;-82
2023/03/16 13:51:45;;;;;;;7.93;4.22;;;;;;;;;;5142144;27;20506;-83
2023/03/16 13:54:17;;;;;;;10.50;4.13;;;;;;;;;;5141814;27;20030;-81
2023/03/16 13:56:44;;;;;;;7.47;4.20;;;;;;;;;;5158630;27;20053;-79
2023/03/16 13:59:10;;;;;;;6.78;3.78;;;;;;;;;;5176901;27;20038;-79
2023/03/16 14:01:36;;;;;;;8.10;4.30;;;;;;;;;;5137541;27;20038;-79
2023/03/16 14:04:10;;;;;;;7.10;3.92;;;;;;;;;;5158185;27;20042;-80
2023/03/16 14:06:37;;;;;;;8.52;4.30;;;;;;;;;;5165571;27;20426;-80
2023/03/16 14:09:11;;;;;;;8.40;4.50;;;;;;;;;;5141504;27;20091;-82
2023/03/16 14:11:38;;;;;;;7.55;3.78;;;;;;;;;;5158158;27;20054;-81
2023/03/16 14:14:13;;;;;;;6.45;4.03;;;;;;;;;;5158198;27;20042;-80
2023/03/16 14:16:39;;;;;;;5.95;3.83;;;;;;;;;;5157796;27;20042;-80
2023/03/16 14:19:07;;;;;;;8.15;4.00;;;;;;;;;;5140746;27;20039;-79
2023/03/16 14:21:34;;;;;;;9.85;4.45;;;;;;;;;;5157691;27;20042;-80
2023/03/16 14:24:03;;;;;;;7.80;4.45;;;;;;;;;;5157612;27;20045;-80
2023/03/16 14:26:39;;;;;;;6.55;3.83;;;;;;;;;;5176573;27;20042;-81
2023/03/16 14:29:05;;;;;;;;;;;;;;;;;;5158169;27;20038;-80
2023/03/16 14:31:40;;;;;;;7.43;4.15;;;;;;;;;;5157607;27;19915;-80
2023/03/16 14:34:20;;;;;;;6.57;4.15;;;;;;;;;;5143411;27;20402;-80
2023/03/16 14:36:46;;;;;;;6.80;3.65;;;;;;;;;;5127186;27;20078;-82
2023/03/16 14:39:13;;;;;;;7.43;3.70;;;;;;;;;;5132237;27;20043;-81
2023/03/16 14:41:39;;;;;;;7.30;4.25;;;;;;;;;;5133905;27;20046;-83
2023/03/16 14:44:15;;;;;;;8.90;4.10;;;;;;;;;;5139845;27;20601;-82
2023/03/16 14:46:41;;;;;;;7.60;4.35;;;;;;;;;;5138227;27;20086;-81